Aérodrome :
LOGIN :

S'inscrire | Disclaimer

   EN    FR    IT 

 










Légende :    VFR   VFR Marginal   IFR   IFR Intensif   IFR Très Intensif
Visi : 
Plafond : 
>= 8 km
>= 3000ft
5 à 8 km
1000 à 3000 ft
1500m à 5 km
500 à 1000 ft
800 à 1500m
200 à 500 ft
< 800m
< 200 ft
Symboles :   Orages  Brouillard  Fortes neiges  Fortes précipitations  Vent > 20 kt
SIGMETs :   Divers  Orages  Givrage  Turbulence  Onde Orograph.  Cendres Volcan.







- Altitude de l'aérodrome : 512 ft
- Code IATA : URO
- Voir les cartes d'approche


LFOP - Rouen Vallée de Seine

DERNIER METAR :
  • 210900Z AUTO 29013KT 270V330 9999 SCT035 15/08 Q1012 TEMPO 4000 SHRA BKN020TCU BECMG 26015G25KT

METARs EXPIRÉS :
  • 210830Z AUTO 28009KT 9999 FEW032 SCT052 14/09 Q1012 TEMPO 4000 SHRA BKN020TCU BECMG 26015G25KT
  • 210800Z AUTO 28011KT 250V310 9999 FEW034 SCT047 15/10 Q1011 TEMPO 4000 SHRA BKN020TCU BECMG 26015G25KT
  • 210730Z AUTO 27009KT 240V300 9999 FEW032 OVC170 14/11 Q1010 TEMPO 4000 SHRA BKN020TCU BECMG 26015G25KT
  • 210700Z AUTO 26010KT 9999 SCT026 BKN044 BKN170 13/11 Q1010 TEMPO 4000 SHRA BKN020TCU BECMG 26015G25KT
  • 210630Z AUTO 26012KT 9999 FEW014 SCT026 BKN032 13/11 Q1009 TEMPO 4000 SHRA BKN020TCU BECMG 26015G25KT

TAF TAF LFOP
Valide du 21 à 06h jusqu'au 22 à 06h UTC


210500Z 2106/2206 26015G25KT 9999 BKN020
TEMPO 2108/2111 4000 SHRA BKN020TCU
BECMG 2115/2118 24005KT
ATIS : +33 2 35 80 80 34
Météo : +33 2 32 86 52 80
Pas de NOTAMs connus pour ce terrain.



MET'MAP, la Météo Aéronautique d'un coup d'oeil ! - Copyright ORBIFLY Décembre 2007 - Disclaimer

ORBIFLY MET'MAP TEAM :

Programmation & Développement : Alexandra Zaïnal
Conception & Développement : Baudouin d'Aumeries
Co-Programmation & Développement : Marc-Olivier Méhu
Soutien technique & logistique : Manuel Goepfert

Contact : metmap@orbifly.com




SOURCES & CREDITS :

   NOAA